Time;durP1;ratioP1;P1;durP2;ratioP2;P2;SDS_P1;SDS_P2;PMS_P1;PMS_P2;Temp;Humidity;BMP_temperature;BMP_pressure;BME280_temperature;BME280_humidity;BME280_pressure;Samples;Min_cycle;Max_cycle;Signal;HPM_P1;HPM_P2
2024/03/27 00:02:40;;;;;;;5.50;1.90;;;;;;;;;;103562;1290;546006;-70
2024/03/27 00:06:17;;;;;;;4.00;1.50;;;;;;;;;;103722;1290;544972;-70
2024/03/27 00:09:54;;;;;;;5.30;1.50;;;;;;;;;;103562;1289;544998;-70
2024/03/27 00:13:32;;;;;;;3.90;1.50;;;;;;;;;;103797;1292;544985;-69
2024/03/27 00:17:10;;;;;;;4.80;1.60;;;;;;;;;;103567;1292;544813;-69
2024/03/27 00:20:47;;;;;;;5.00;1.60;;;;;;;;;;103727;1289;544760;-71
2024/03/27 00:24:24;;;;;;;6.50;1.70;;;;;;;;;;103708;1289;544999;-69
2024/03/27 00:28:02;;;;;;;5.20;1.60;;;;;;;;;;103703;1288;544926;-69
2024/03/27 00:31:45;;;;;;;4.80;1.40;;;;;;;;;;103473;1291;549446;-69
2024/03/27 00:35:13;;;;;;;5.00;1.60;;;;;;;;;;103636;1293;544901;-70
2024/03/27 00:38:54;;;;;;;5.90;1.70;;;;;;;;;;103434;1292;544933;-70
2024/03/27 00:42:31;;;;;;;5.10;1.60;;;;;;;;;;103838;1292;544974;-69
2024/03/27 00:46:09;;;;;;;4.80;1.60;;;;;;;;;;103492;1292;544752;-69
2024/03/27 00:49:47;;;;;;;5.20;1.60;;;;;;;;;;103595;1292;544635;-70
2024/03/27 00:53:24;;;;;;;5.20;1.60;;;;;;;;;;103677;1289;544784;-70
2024/03/27 00:57:03;;;;;;;5.70;1.50;;;;;;;;;;103489;1294;544973;-70
2024/03/27 01:00:41;;;;;;;5.80;1.40;;;;;;;;;;103349;1292;545642;-70
2024/03/27 01:04:13;;;;;;;7.40;1.90;;;;;;;;;;103658;1290;545559;-68
2024/03/27 01:07:54;;;;;;;4.60;1.50;;;;;;;;;;103587;1291;544872;-69
2024/03/27 01:11:38;;;;;;;5.40;1.60;;;;;;;;;;103441;1292;547943;-70
2024/03/27 01:15:09;;;;;;;4.10;1.40;;;;;;;;;;103625;1294;545338;-70
2024/03/27 01:18:47;;;;;;;5.60;1.60;;;;;;;;;;103624;1289;546705;-70
2024/03/27 01:22:24;;;;;;;6.70;1.60;;;;;;;;;;103700;1288;545500;-70
2024/03/27 01:26:02;;;;;;;6.10;1.70;;;;;;;;;;103831;1289;545403;-70
2024/03/27 01:29:38;;;;;;;6.30;1.70;;;;;;;;;;103502;1292;544716;-70
2024/03/27 01:33:16;;;;;;;5.70;1.50;;;;;;;;;;103723;1289;544725;-69
2024/03/27 01:36:54;;;;;;;4.80;1.60;;;;;;;;;;103572;1297;544900;-70
2024/03/27 01:40:31;;;;;;;5.70;1.80;;;;;;;;;;103570;1302;545904;-70
2024/03/27 01:44:05;;;;;;;3.80;1.50;;;;;;;;;;103758;1289;544899;-70
2024/03/27 01:47:47;;;;;;;5.50;1.60;;;;;;;;;;103509;1292;545566;-71
2024/03/27 01:51:24;;;;;;;5.20;1.60;;;;;;;;;;103597;1291;544807;-70
2024/03/27 01:55:02;;;;;;;4.10;1.50;;;;;;;;;;104133;1285;544982;-69
2024/03/27 01:58:39;;;;;;;4.80;1.70;;;;;;;;;;103598;1292;544817;-69
2024/03/27 02:02:22;;;;;;;3.80;1.50;;;;;;;;;;103524;1287;546260;-70
2024/03/27 02:05:54;;;;;;;5.10;1.60;;;;;;;;;;103633;1292;545053;-70
2024/03/27 02:09:31;;;;;;;4.30;1.70;;;;;;;;;;103630;1289;545052;-69
2024/03/27 02:13:11;;;;;;;5.40;1.60;;;;;;;;;;103632;1289;544762;-69
2024/03/27 02:16:46;;;;;;;3.90;1.30;;;;;;;;;;103609;1291;545107;-69
2024/03/27 02:24:24;;;;;;;5.20;1.50;;;;;;;;;;103658;1289;545038;-70
2024/03/27 02:27:42;;;;;;;4.10;1.30;;;;;;;;;;103565;1292;544776;-70
2024/03/27 02:31:19;;;;;;;6.30;1.60;;;;;;;;;;103846;1288;544730;-69
2024/03/27 02:34:57;;;;;;;5.90;1.50;;;;;;;;;;103981;1289;545315;-69
2024/03/27 02:38:35;;;;;;;6.40;1.70;;;;;;;;;;104141;1286;544967;-70
2024/03/27 02:42:15;;;;;;;4.70;1.60;;;;;;;;;;103934;1286;546349;-69
2024/03/27 02:45:49;;;;;;;4.60;1.60;;;;;;;;;;103700;1288;545917;-69
2024/03/27 02:49:27;;;;;;;4.90;1.60;;;;;;;;;;103652;1295;544994;-71
2024/03/27 02:53:05;;;;;;;4.30;1.50;;;;;;;;;;103516;1292;544807;-69
2024/03/27 02:56:42;;;;;;;5.90;1.50;;;;;;;;;;103298;1295;545105;-69
2024/03/27 03:00:20;;;;;;;4.20;1.30;;;;;;;;;;103607;1291;544812;-70
2024/03/27 03:03:53;;;;;;;5.30;1.50;;;;;;;;;;103751;1289;544755;-69
2024/03/27 03:07:35;;;;;;;5.10;1.40;;;;;;;;;;104254;1285;545032;-69
2024/03/27 03:11:12;;;;;;;5.70;1.80;;;;;;;;;;103692;1292;545309;-70
2024/03/27 03:14:49;;;;;;;5.80;1.80;;;;;;;;;;103661;1290;545255;-70
2024/03/27 03:18:28;;;;;;;4.20;1.50;;;;;;;;;;103451;1292;544918;-69
2024/03/27 03:22:04;;;;;;;5.30;1.70;;;;;;;;;;103620;1289;544878;-69
2024/03/27 03:25:41;;;;;;;4.40;1.40;;;;;;;;;;104242;1283;545698;-69
2024/03/27 03:29:25;;;;;;;4.50;1.40;;;;;;;;;;103506;1290;547772;-70
2024/03/27 03:32:57;;;;;;;6.80;1.60;;;;;;;;;;103663;1292;545360;-69
2024/03/27 03:36:33;;;;;;;5.70;1.50;;;;;;;;;;103941;1286;544971;-70
2024/03/27 03:40:12;;;;;;;6.60;1.70;;;;;;;;;;103610;1289;545457;-69
2024/03/27 03:43:49;;;;;;;5.00;1.60;;;;;;;;;;103514;1291;546116;-69
2024/03/27 03:47:27;;;;;;;5.30;1.50;;;;;;;;;;103764;1289;544811;-69
2024/03/27 03:51:07;;;;;;;5.30;1.60;;;;;;;;;;103635;1289;544884;-69
2024/03/27 03:54:42;;;;;;;5.10;1.50;;;;;;;;;;103604;1295;545725;-68
2024/03/27 03:58:19;;;;;;;5.50;1.70;;;;;;;;;;103665;1289;545145;-69
2024/03/27 04:01:56;;;;;;;6.50;1.70;;;;;;;;;;103629;1290;544770;-69
2024/03/27 04:05:35;;;;;;;8.00;2.30;;;;;;;;;;103661;1289;544936;-69
2024/03/27 04:09:12;;;;;;;6.80;1.90;;;;;;;;;;103552;1290;544879;-68
2024/03/27 04:12:49;;;;;;;5.60;1.70;;;;;;;;;;103612;1295;544768;-69
2024/03/27 04:16:26;;;;;;;6.50;1.70;;;;;;;;;;103519;1303;544839;-69
2024/03/27 04:20:10;;;;;;;6.40;2.10;;;;;;;;;;103558;1291;544994;-69
2024/03/27 04:23:42;;;;;;;4.90;1.90;;;;;;;;;;103626;1295;544998;-69
2024/03/27 04:27:20;;;;;;;6.00;2.10;;;;;;;;;;103576;1292;545534;-69
2024/03/27 04:30:53;;;;;;;8.00;2.80;;;;;;;;;;103609;1292;544968;-68
2024/03/27 04:34:35;;;;;;;7.10;2.50;;;;;;;;;;104407;1286;545039;-69
2024/03/27 04:38:11;;;;;;;7.40;2.70;;;;;;;;;;103504;1294;545507;-69
2024/03/27 04:41:51;;;;;;;8.00;2.20;;;;;;;;;;103607;1289;546299;-68
2024/03/27 04:45:26;;;;;;;5.80;2.10;;;;;;;;;;103683;1290;545039;-69
2024/03/27 04:49:05;;;;;;;4.60;1.80;;;;;;;;;;103649;1290;545067;-69
2024/03/27 04:52:42;;;;;;;5.80;2.10;;;;;;;;;;103894;1288;544842;-67
2024/03/27 04:56:19;;;;;;;7.40;2.10;;;;;;;;;;103607;1292;545409;-69
2024/03/27 04:59:57;;;;;;;7.90;2.30;;;;;;;;;;103794;1289;545011;-68
2024/03/27 05:03:34;;;;;;;6.50;2.20;;;;;;;;;;103653;1291;545263;-68
2024/03/27 05:07:13;;;;;;;9.70;3.10;;;;;;;;;;103639;1289;544953;-68
2024/03/27 05:10:50;;;;;;;7.30;2.20;;;;;;;;;;103635;1290;544977;-70
2024/03/27 05:14:23;;;;;;;7.10;2.40;;;;;;;;;;104171;1288;544930;-68
2024/03/27 05:18:11;;;;;;;7.30;2.80;;;;;;;;;;103195;1291;547993;-69
2024/03/27 05:21:43;;;;;;;7.00;2.80;;;;;;;;;;103646;1290;545734;-69
2024/03/27 05:25:20;;;;;;;8.30;2.50;;;;;;;;;;103522;1291;546008;-69
2024/03/27 05:28:57;;;;;;;12.80;2.90;;;;;;;;;;104122;1286;545150;-70
2024/03/27 05:32:54;;;;;;;24.50;4.10;;;;;;;;;;103888;1291;549321;-73
2024/03/27 05:36:11;;;;;;;11.30;3.10;;;;;;;;;;103710;1301;544897;-69
2024/03/27 05:39:49;;;;;;;8.40;3.20;;;;;;;;;;103810;1289;545861;-69
2024/03/27 05:43:26;;;;;;;8.40;2.80;;;;;;;;;;103606;1289;544934;-70
2024/03/27 05:47:04;;;;;;;8.20;2.70;;;;;;;;;;103558;1289;545889;-68
2024/03/27 05:50:42;;;;;;;9.20;3.00;;;;;;;;;;103625;1289;545009;-70
2024/03/27 05:54:19;;;;;;;8.80;2.90;;;;;;;;;;104041;1283;544808;-69
2024/03/27 05:58:02;;;;;;;6.80;2.60;;;;;;;;;;103478;1295;547948;-70
2024/03/27 06:01:34;;;;;;;6.80;2.60;;;;;;;;;;103731;1288;545513;-68
2024/03/27 06:05:11;;;;;;;10.20;2.80;;;;;;;;;;103399;1297;544744;-68
2024/03/27 06:08:55;;;;;;;9.90;3.20;;;;;;;;;;103625;1289;548296;-69
2024/03/27 06:12:27;;;;;;;11.10;3.60;;;;;;;;;;103655;1289;544872;-68
2024/03/27 06:16:05;;;;;;;10.80;3.30;;;;;;;;;;103585;1291;544910;-70
2024/03/27 06:19:42;;;;;;;8.10;3.30;;;;;;;;;;103651;1292;545588;-69
2024/03/27 06:23:18;;;;;;;11.10;3.50;;;;;;;;;;103672;1289;544799;-68
2024/03/27 06:26:56;;;;;;;8.50;3.30;;;;;;;;;;103546;1289;545374;-69
2024/03/27 06:30:38;;;;;;;7.30;2.90;;;;;;;;;;103701;1289;544723;-69
2024/03/27 06:34:12;;;;;;;7.90;2.70;;;;;;;;;;103503;1291;546478;-69
2024/03/27 06:37:49;;;;;;;6.80;2.90;;;;;;;;;;103507;1289;544744;-68
2024/03/27 06:41:27;;;;;;;9.50;2.80;;;;;;;;;;103615;1295;545550;-71
2024/03/27 06:45:05;;;;;;;8.30;3.10;;;;;;;;;;103497;1292;545148;-69
2024/03/27 06:48:51;;;;;;;7.30;2.70;;;;;;;;;;103536;1291;545001;-69
2024/03/27 06:52:22;;;;;;;6.50;2.40;;;;;;;;;;103617;1292;545509;-67
2024/03/27 06:55:56;;;;;;;7.30;2.70;;;;;;;;;;103787;1289;545285;-68
2024/03/27 06:59:34;;;;;;;7.20;2.40;;;;;;;;;;103551;1291;545034;-69
2024/03/27 07:03:11;;;;;;;7.40;2.30;;;;;;;;;;103490;1300;544967;-70
2024/03/27 07:06:48;;;;;;;7.10;2.70;;;;;;;;;;103703;1292;545404;-69
2024/03/27 07:10:26;;;;;;;6.60;2.40;;;;;;;;;;103782;1293;545006;-69
2024/03/27 07:14:04;;;;;;;7.20;2.90;;;;;;;;;;103596;1291;544978;-71
2024/03/27 07:17:42;;;;;;;8.20;2.70;;;;;;;;;;103637;1289;544927;-70
2024/03/27 07:21:18;;;;;;;7.20;2.70;;;;;;;;;;103493;1292;544691;-69
2024/03/27 07:24:56;;;;;;;7.50;2.80;;;;;;;;;;103679;1299;545601;-68
2024/03/27 07:28:34;;;;;;;8.00;2.90;;;;;;;;;;103681;1292;544749;-69
2024/03/27 07:32:11;;;;;;;7.50;2.60;;;;;;;;;;103775;1292;544747;-68
2024/03/27 07:35:49;;;;;;;7.30;2.50;;;;;;;;;;103607;1292;544800;-68
2024/03/27 07:39:26;;;;;;;8.40;2.90;;;;;;;;;;103591;1291;545761;-70
2024/03/27 07:43:04;;;;;;;9.00;2.50;;;;;;;;;;104336;1283;546271;-70
2024/03/27 07:46:41;;;;;;;11.10;2.70;;;;;;;;;;103533;1292;545042;-67
2024/03/27 07:50:24;;;;;;;13.70;3.00;;;;;;;;;;103638;1299;549234;-71
2024/03/27 07:53:56;;;;;;;9.20;2.50;;;;;;;;;;103780;1293;545380;-68
2024/03/27 07:57:50;;;;;;;17.20;2.60;;;;;;;;;;103655;1292;544971;-69
2024/03/27 08:01:11;;;;;;;7.20;2.40;;;;;;;;;;103562;1295;544951;-70
2024/03/27 08:35:28;;;;;;;10.90;3.00;;;;;;;;;;104541;1283;549558;-78
2024/03/27 08:38:23;;;;;;;11.60;2.50;;;;;;;;;;103608;1292;544793;-69
2024/03/27 08:41:59;;;;;;;9.80;2.70;;;;;;;;;;103313;1292;546341;-69
2024/03/27 08:45:38;;;;;;;14.50;3.00;;;;;;;;;;103359;1295;545153;-71
2024/03/27 08:49:18;;;;;;;8.70;2.70;;;;;;;;;;103707;1295;545529;-70
2024/03/27 10:29:06;;;;;;;13.40;3.30;;;;;;;;;;104582;1282;550710;-74
2024/03/27 10:32:02;;;;;;;10.40;3.50;;;;;;;;;;103883;1296;544954;-76
2024/03/27 10:35:37;;;;;;;9.10;3.10;;;;;;;;;;103921;1289;544803;-72
2024/03/27 10:39:17;;;;;;;13.80;2.90;;;;;;;;;;104446;1282;545306;-70
2024/03/27 10:43:00;;;;;;;9.40;2.70;;;;;;;;;;104084;1291;544962;-71
2024/03/27 10:46:32;;;;;;;8.20;2.60;;;;;;;;;;104688;1283;545433;-71
2024/03/27 10:50:09;;;;;;;10.00;2.80;;;;;;;;;;103519;1294;545982;-70
2024/03/27 10:53:46;;;;;;;9.60;2.90;;;;;;;;;;103712;1289;545132;-73
2024/03/27 10:57:23;;;;;;;13.30;3.10;;;;;;;;;;103662;1292;545417;-71
2024/03/27 11:01:02;;;;;;;8.90;2.90;;;;;;;;;;104156;1288;545863;-69
2024/03/27 11:04:40;;;;;;;7.10;2.60;;;;;;;;;;103790;1292;545066;-69
2024/03/27 11:08:17;;;;;;;7.50;2.90;;;;;;;;;;103640;1292;545539;-70
2024/03/27 11:11:49;;;;;;;8.60;2.50;;;;;;;;;;103691;1291;544954;-75
2024/03/27 11:15:31;;;;;;;13.30;3.10;;;;;;;;;;104097;1285;544937;-70
2024/03/27 11:19:08;;;;;;;10.30;2.80;;;;;;;;;;103765;1290;545420;-72
2024/03/27 11:22:47;;;;;;;9.20;2.80;;;;;;;;;;103720;1292;545757;-69
2024/03/27 11:26:30;;;;;;;6.30;2.30;;;;;;;;;;103812;1290;545728;-73
2024/03/27 11:29:59;;;;;;;15.10;3.00;;;;;;;;;;103661;1288;545383;-71
2024/03/27 11:33:37;;;;;;;6.50;2.50;;;;;;;;;;104223;1286;545022;-70
2024/03/27 11:37:15;;;;;;;8.80;2.40;;;;;;;;;;103843;1293;545877;-73
2024/03/27 11:40:53;;;;;;;68.20;7.30;;;;;;;;;;103508;1291;544882;-71
2024/03/27 11:44:32;;;;;;;16.60;2.80;;;;;;;;;;103613;1292;544817;-69
2024/03/27 11:48:07;;;;;;;20.10;2.90;;;;;;;;;;103314;1291;545426;-71
2024/03/27 11:51:45;;;;;;;10.20;2.50;;;;;;;;;;103654;1291;545353;-70
2024/03/27 11:55:22;;;;;;;10.60;2.70;;;;;;;;;;103542;1292;544881;-69
2024/03/27 11:59:00;;;;;;;10.00;2.60;;;;;;;;;;103465;1292;545094;-70
2024/03/27 12:02:39;;;;;;;9.50;2.60;;;;;;;;;;104156;1289;545836;-72
2024/03/27 12:06:14;;;;;;;8.20;2.50;;;;;;;;;;103769;1292;545104;-70
2024/03/27 12:09:49;;;;;;;7.80;2.20;;;;;;;;;;104715;1279;544939;-69
2024/03/27 12:13:30;;;;;;;7.50;2.20;;;;;;;;;;103547;1293;546148;-70
2024/03/27 12:17:10;;;;;;;10.30;2.30;;;;;;;;;;103658;1290;546065;-70
2024/03/27 12:20:44;;;;;;;9.50;2.80;;;;;;;;;;103643;1296;545396;-70
2024/03/27 12:24:22;;;;;;;7.80;2.60;;;;;;;;;;103458;1292;545289;-69
2024/03/27 12:28:00;;;;;;;7.40;2.60;;;;;;;;;;103580;1292;544985;-70
2024/03/27 12:31:37;;;;;;;8.00;2.50;;;;;;;;;;103520;1292;545363;-70
2024/03/27 12:35:14;;;;;;;7.60;2.50;;;;;;;;;;103809;1287;545969;-69
2024/03/27 12:38:52;;;;;;;8.90;3.20;;;;;;;;;;103550;1292;545930;-68
2024/03/27 12:42:30;;;;;;;8.20;2.80;;;;;;;;;;103455;1295;545404;-69
2024/03/27 12:46:07;;;;;;;7.80;2.80;;;;;;;;;;103465;1295;544843;-70
2024/03/27 12:49:44;;;;;;;7.80;2.60;;;;;;;;;;104306;1286;545897;-68
2024/03/27 12:53:23;;;;;;;7.50;2.80;;;;;;;;;;103571;1292;544604;-69
2024/03/27 12:56:59;;;;;;;7.00;2.40;;;;;;;;;;103548;1290;545999;-70
2024/03/27 13:00:37;;;;;;;8.70;2.50;;;;;;;;;;103619;1291;544712;-67
2024/03/27 13:04:14;;;;;;;6.90;2.70;;;;;;;;;;103461;1294;545780;-70
2024/03/27 13:07:52;;;;;;;7.50;3.00;;;;;;;;;;103604;1292;545169;-72
2024/03/27 13:11:30;;;;;;;11.40;4.30;;;;;;;;;;103621;1292;544931;-72
2024/03/27 13:15:09;;;;;;;7.10;2.80;;;;;;;;;;103498;1295;545225;-69
2024/03/27 13:18:45;;;;;;;9.70;2.60;;;;;;;;;;103843;1289;545552;-68
2024/03/27 13:22:21;;;;;;;7.70;3.00;;;;;;;;;;103436;1292;544791;-67
2024/03/27 13:25:59;;;;;;;10.50;3.80;;;;;;;;;;103566;1292;545183;-69
2024/03/27 13:29:37;;;;;;;19.90;11.90;;;;;;;;;;103310;1305;545641;-69
2024/03/27 13:33:14;;;;;;;6.40;2.80;;;;;;;;;;103472;1292;544876;-69
2024/03/27 13:36:52;;;;;;;6.70;2.40;;;;;;;;;;104140;1289;544800;-72
2024/03/27 13:40:35;;;;;;;6.30;2.10;;;;;;;;;;103423;1291;546723;-73
2024/03/27 13:44:07;;;;;;;8.30;2.10;;;;;;;;;;103672;1290;544882;-68
2024/03/27 13:47:51;;;;;;;7.80;2.40;;;;;;;;;;104092;1284;544698;-70
2024/03/27 13:51:22;;;;;;;7.70;2.40;;;;;;;;;;103657;1293;545585;-69
2024/03/27 13:54:59;;;;;;;5.40;2.20;;;;;;;;;;103781;1302;544782;-70
2024/03/27 13:58:37;;;;;;;6.10;2.50;;;;;;;;;;103534;1292;545413;-70
2024/03/27 14:02:14;;;;;;;5.90;2.20;;;;;;;;;;103720;1289;544971;-69
2024/03/27 14:05:52;;;;;;;6.90;2.70;;;;;;;;;;103219;1296;545508;-70
2024/03/27 14:09:29;;;;;;;7.10;2.80;;;;;;;;;;103724;1290;544780;-69
2024/03/27 14:13:08;;;;;;;9.60;4.00;;;;;;;;;;103655;1291;544842;-69
2024/03/27 14:16:44;;;;;;;7.10;2.70;;;;;;;;;;103607;1300;545938;-67
2024/03/27 14:20:21;;;;;;;9.00;3.80;;;;;;;;;;103857;1294;544981;-69
2024/03/27 14:23:59;;;;;;;5.90;2.50;;;;;;;;;;103625;1292;544978;-69
2024/03/27 14:27:36;;;;;;;9.20;2.40;;;;;;;;;;103550;1292;544729;-67
2024/03/27 14:31:14;;;;;;;8.40;3.20;;;;;;;;;;104382;1282;545906;-69
2024/03/27 14:34:52;;;;;;;9.40;2.60;;;;;;;;;;103495;1292;544985;-68
2024/03/27 14:38:29;;;;;;;8.20;2.80;;;;;;;;;;103666;1294;544921;-69
2024/03/27 14:42:07;;;;;;;7.10;3.30;;;;;;;;;;103589;1301;545133;-70
2024/03/27 14:45:44;;;;;;;6.60;2.50;;;;;;;;;;103573;1291;545030;-69
2024/03/27 14:49:22;;;;;;;8.00;2.90;;;;;;;;;;104235;1283;544766;-67
2024/03/27 14:52:59;;;;;;;7.40;3.00;;;;;;;;;;103619;1289;544648;-68
2024/03/27 14:56:36;;;;;;;8.80;3.10;;;;;;;;;;103720;1288;544948;-68
2024/03/27 15:00:10;;;;;;;8.40;3.10;;;;;;;;;;103723;1289;544901;-69
2024/03/27 15:03:55;;;;;;;8.10;3.00;;;;;;;;;;103526;1291;545368;-71
2024/03/27 15:07:30;;;;;;;6.70;2.80;;;;;;;;;;103600;1289;544811;-70
2024/03/27 15:11:12;;;;;;;11.20;4.70;;;;;;;;;;103304;1291;547757;-69
2024/03/27 15:14:44;;;;;;;13.70;8.50;;;;;;;;;;103922;1289;544950;-68
2024/03/27 15:18:22;;;;;;;9.50;4.60;;;;;;;;;;103494;1291;545162;-67
2024/03/27 15:21:58;;;;;;;7.90;3.20;;;;;;;;;;103748;1289;544890;-70
2024/03/27 15:25:36;;;;;;;7.70;3.10;;;;;;;;;;103377;1294;545354;-70
2024/03/27 15:29:13;;;;;;;9.60;4.30;;;;;;;;;;103875;1289;545352;-69
2024/03/27 15:32:52;;;;;;;13.50;6.40;;;;;;;;;;103528;1292;545860;-68
2024/03/27 15:36:29;;;;;;;12.70;6.10;;;;;;;;;;103477;1291;545448;-68
2024/03/27 15:40:07;;;;;;;10.90;5.80;;;;;;;;;;103389;1292;545333;-68
2024/03/27 15:43:44;;;;;;;9.20;3.70;;;;;;;;;;103613;1292;545440;-67
2024/03/27 15:47:21;;;;;;;11.50;5.30;;;;;;;;;;103437;1297;544808;-69
2024/03/27 15:50:59;;;;;;;8.30;4.50;;;;;;;;;;103424;1295;544897;-71
2024/03/27 15:54:37;;;;;;;9.00;3.80;;;;;;;;;;103438;1291;544795;-68
2024/03/27 15:58:14;;;;;;;10.20;5.50;;;;;;;;;;103606;1292;544707;-69
2024/03/27 16:01:52;;;;;;;9.60;3.60;;;;;;;;;;103446;1292;545580;-68
2024/03/27 16:05:29;;;;;;;24.10;19.10;;;;;;;;;;103650;1291;546197;-68
2024/03/27 16:09:06;;;;;;;9.50;4.10;;;;;;;;;;103485;1291;544676;-69
2024/03/27 16:12:49;;;;;;;9.50;4.10;;;;;;;;;;103391;1294;547167;-68
2024/03/27 16:16:21;;;;;;;11.90;6.90;;;;;;;;;;103565;1291;545037;-69
2024/03/27 16:19:58;;;;;;;12.10;6.40;;;;;;;;;;103897;1287;544963;-67
2024/03/27 16:23:37;;;;;;;14.90;9.00;;;;;;;;;;103619;1289;545317;-69
2024/03/27 16:27:14;;;;;;;10.10;5.60;;;;;;;;;;103555;1292;545350;-68
2024/03/27 16:30:51;;;;;;;23.50;14.10;;;;;;;;;;103702;1295;544951;-69
2024/03/27 16:34:28;;;;;;;23.00;15.30;;;;;;;;;;103563;1295;545122;-70
2024/03/27 16:38:06;;;;;;;21.40;13.60;;;;;;;;;;103588;1288;544652;-68
2024/03/27 16:41:44;;;;;;;20.30;16.20;;;;;;;;;;103480;1295;544912;-68
2024/03/27 16:45:21;;;;;;;10.30;5.90;;;;;;;;;;103701;1289;545048;-69
2024/03/27 16:48:58;;;;;;;11.70;6.10;;;;;;;;;;103479;1292;544961;-68
2024/03/27 16:52:36;;;;;;;10.20;4.90;;;;;;;;;;103706;1291;544918;-68
2024/03/27 16:56:13;;;;;;;13.00;6.70;;;;;;;;;;103908;1292;544741;-69
2024/03/27 16:59:52;;;;;;;12.40;7.00;;;;;;;;;;103490;1292;544962;-67
2024/03/27 17:03:34;;;;;;;13.70;7.60;;;;;;;;;;103383;1291;547998;-69
2024/03/27 17:07:06;;;;;;;13.60;6.60;;;;;;;;;;103555;1289;545015;-68
2024/03/27 17:10:43;;;;;;;12.90;7.20;;;;;;;;;;103641;1289;545126;-68
2024/03/27 17:14:21;;;;;;;11.50;6.80;;;;;;;;;;103464;1291;545071;-68
2024/03/27 17:17:58;;;;;;;13.50;7.30;;;;;;;;;;103717;1288;544982;-68
2024/03/27 17:21:32;;;;;;;13.60;7.60;;;;;;;;;;104386;1283;544657;-68
2024/03/27 17:25:13;;;;;;;13.60;7.10;;;;;;;;;;103508;1293;545665;-69
2024/03/27 17:28:52;;;;;;;13.30;7.30;;;;;;;;;;104195;1283;544840;-70
2024/03/27 17:32:24;;;;;;;12.50;6.50;;;;;;;;;;103666;1295;545669;-70
2024/03/27 17:36:06;;;;;;;12.60;6.70;;;;;;;;;;103688;1292;545651;-69
2024/03/27 17:39:44;;;;;;;13.40;7.20;;;;;;;;;;103455;1303;545033;-68
2024/03/27 17:43:21;;;;;;;13.80;7.50;;;;;;;;;;104062;1286;545591;-69
2024/03/27 17:46:58;;;;;;;13.80;7.80;;;;;;;;;;103573;1295;545592;-70
2024/03/27 17:50:40;;;;;;;13.90;7.00;;;;;;;;;;103553;1292;545304;-69
2024/03/27 17:54:13;;;;;;;12.70;6.70;;;;;;;;;;103389;1291;545537;-70
2024/03/27 17:57:54;;;;;;;14.40;6.40;;;;;;;;;;103629;1293;545176;-69
2024/03/27 18:01:29;;;;;;;12.90;6.60;;;;;;;;;;103539;1292;545050;-70
2024/03/27 18:05:06;;;;;;;13.70;6.60;;;;;;;;;;103577;1292;544809;-68
2024/03/27 18:08:43;;;;;;;13.00;7.90;;;;;;;;;;103561;1293;544976;-69
2024/03/27 18:12:30;;;;;;;15.70;10.00;;;;;;;;;;103511;1292;544778;-69
2024/03/27 18:16:01;;;;;;;14.90;8.80;;;;;;;;;;103540;1291;544811;-69
2024/03/27 18:19:35;;;;;;;13.40;6.70;;;;;;;;;;103558;1293;545076;-69
2024/03/27 18:23:12;;;;;;;12.20;7.10;;;;;;;;;;103695;1292;545482;-69
2024/03/27 18:26:51;;;;;;;10.50;6.80;;;;;;;;;;103480;1292;544800;-68
2024/03/27 18:30:37;;;;;;;18.10;9.90;;;;;;;;;;103541;1293;545942;-69
2024/03/27 18:34:06;;;;;;;24.70;14.00;;;;;;;;;;103528;1292;545330;-70
2024/03/27 18:37:43;;;;;;;23.60;13.10;;;;;;;;;;103502;1291;545963;-70
2024/03/27 18:41:22;;;;;;;13.40;8.00;;;;;;;;;;103603;1292;545590;-69
2024/03/27 18:45:09;;;;;;;14.90;7.70;;;;;;;;;;103489;1294;545638;-68
2024/03/27 18:48:36;;;;;;;11.70;6.70;;;;;;;;;;103530;1296;545380;-70
2024/03/27 18:52:13;;;;;;;15.50;8.00;;;;;;;;;;103443;1293;544883;-68
2024/03/27 18:55:51;;;;;;;14.20;8.10;;;;;;;;;;103490;1291;545393;-69
2024/03/27 18:59:41;;;;;;;14.50;9.20;;;;;;;;;;103545;1291;545125;-68
2024/03/27 19:03:09;;;;;;;18.60;11.00;;;;;;;;;;103516;1292;544958;-68
2024/03/27 19:06:44;;;;;;;17.30;7.60;;;;;;;;;;103526;1298;544939;-68
2024/03/27 19:10:20;;;;;;;12.90;7.00;;;;;;;;;;103718;1301;545111;-69
2024/03/27 19:13:54;;;;;;;12.50;7.00;;;;;;;;;;103773;1290;545815;-66
2024/03/27 19:17:39;;;;;;;12.20;7.10;;;;;;;;;;104310;1283;545564;-68
2024/03/27 19:21:14;;;;;;;11.70;6.30;;;;;;;;;;103486;1295;544776;-68
2024/03/27 19:24:52;;;;;;;10.20;6.10;;;;;;;;;;103458;1292;544718;-70
2024/03/27 19:28:28;;;;;;;11.10;6.40;;;;;;;;;;103546;1289;544973;-67
2024/03/27 19:32:09;;;;;;;11.10;6.00;;;;;;;;;;103516;1292;544815;-69
2024/03/27 19:35:46;;;;;;;13.30;7.20;;;;;;;;;;103688;1292;544920;-70
2024/03/27 19:39:21;;;;;;;13.50;7.40;;;;;;;;;;103448;1292;545659;-68
2024/03/27 19:43:02;;;;;;;16.10;8.80;;;;;;;;;;103507;1292;545982;-69
2024/03/27 19:46:40;;;;;;;16.40;8.80;;;;;;;;;;103531;1292;545093;-69
2024/03/27 19:50:17;;;;;;;16.40;9.70;;;;;;;;;;103436;1291;544980;-69
2024/03/27 19:54:04;;;;;;;12.70;7.90;;;;;;;;;;103812;1292;544778;-69
2024/03/27 19:57:28;;;;;;;12.80;7.30;;;;;;;;;;103520;1289;545464;-69
2024/03/27 20:01:09;;;;;;;10.90;6.70;;;;;;;;;;103529;1290;545379;-69
2024/03/27 20:04:42;;;;;;;14.40;7.00;;;;;;;;;;103521;1293;544942;-69
2024/03/27 20:08:21;;;;;;;10.50;5.70;;;;;;;;;;103429;1292;545093;-68
2024/03/27 20:12:00;;;;;;;9.80;5.60;;;;;;;;;;103629;1292;545446;-69
2024/03/27 20:15:38;;;;;;;13.10;6.60;;;;;;;;;;103540;1302;545729;-70
2024/03/27 20:19:18;;;;;;;14.00;7.20;;;;;;;;;;103452;1294;547812;-69
2024/03/27 20:22:51;;;;;;;13.30;7.60;;;;;;;;;;103541;1289;545000;-68
2024/03/27 20:26:36;;;;;;;13.80;6.70;;;;;;;;;;103630;1290;544981;-69
2024/03/27 20:30:07;;;;;;;10.40;5.30;;;;;;;;;;104019;1285;545041;-69
2024/03/27 20:33:43;;;;;;;9.20;5.40;;;;;;;;;;103473;1292;545066;-70
2024/03/27 20:37:20;;;;;;;12.30;6.10;;;;;;;;;;103576;1292;544779;-70
2024/03/27 20:41:02;;;;;;;11.40;5.90;;;;;;;;;;103638;1292;546006;-68
2024/03/27 20:44:35;;;;;;;10.50;6.00;;;;;;;;;;103620;1290;544980;-68
2024/03/27 20:48:08;;;;;;;10.10;5.10;;;;;;;;;;103515;1289;545616;-69
2024/03/27 20:51:50;;;;;;;10.00;4.50;;;;;;;;;;103404;1292;545461;-68
2024/03/27 20:55:33;;;;;;;10.70;4.60;;;;;;;;;;103251;1298;545601;-69
2024/03/27 20:59:05;;;;;;;9.90;4.70;;;;;;;;;;103371;1295;544747;-69
2024/03/27 21:02:42;;;;;;;9.70;4.80;;;;;;;;;;103434;1302;545395;-70
2024/03/27 21:06:20;;;;;;;9.60;5.10;;;;;;;;;;103431;1296;544855;-69
2024/03/27 21:10:00;;;;;;;11.50;4.50;;;;;;;;;;103416;1292;544981;-68
2024/03/27 21:13:40;;;;;;;12.90;5.70;;;;;;;;;;103406;1291;544928;-69
2024/03/27 21:17:16;;;;;;;12.80;6.20;;;;;;;;;;103436;1291;545374;-70
2024/03/27 21:20:49;;;;;;;11.60;5.60;;;;;;;;;;103556;1292;544757;-70
2024/03/27 21:24:25;;;;;;;12.20;5.20;;;;;;;;;;103477;1303;544894;-69
2024/03/27 21:28:05;;;;;;;10.00;4.60;;;;;;;;;;103564;1292;545383;-70
2024/03/27 21:31:42;;;;;;;10.20;4.40;;;;;;;;;;103565;1289;544942;-70
2024/03/27 21:35:19;;;;;;;10.60;4.80;;;;;;;;;;104074;1292;544953;-69
2024/03/27 21:38:57;;;;;;;10.80;5.30;;;;;;;;;;103404;1292;545097;-69
2024/03/27 21:42:34;;;;;;;10.50;5.70;;;;;;;;;;103527;1291;545142;-69
2024/03/27 21:46:12;;;;;;;11.00;6.10;;;;;;;;;;103509;1293;546345;-70
2024/03/27 21:49:55;;;;;;;12.90;6.60;;;;;;;;;;103544;1292;544790;-70
2024/03/27 21:53:27;;;;;;;18.60;8.90;;;;;;;;;;103581;1292;545789;-70
2024/03/27 21:57:05;;;;;;;11.60;6.50;;;;;;;;;;103315;1291;544774;-69
2024/03/27 22:00:45;;;;;;;12.80;6.40;;;;;;;;;;103806;1292;544969;-69
2024/03/27 22:04:20;;;;;;;12.70;6.50;;;;;;;;;;103515;1292;544767;-70
2024/03/27 22:07:57;;;;;;;12.30;5.70;;;;;;;;;;103721;1295;544755;-69
2024/03/27 22:11:45;;;;;;;11.60;5.60;;;;;;;;;;103513;1289;545851;-70
2024/03/27 22:15:14;;;;;;;13.00;6.80;;;;;;;;;;103835;1292;545364;-69
2024/03/27 22:18:53;;;;;;;15.00;8.40;;;;;;;;;;103513;1291;544879;-69
2024/03/27 22:22:29;;;;;;;15.80;7.60;;;;;;;;;;103526;1291;545231;-68
2024/03/27 22:26:12;;;;;;;15.00;7.00;;;;;;;;;;103441;1291;544779;-68
2024/03/27 22:29:47;;;;;;;13.70;7.00;;;;;;;;;;103501;1289;544822;-68
2024/03/27 22:33:20;;;;;;;13.00;6.80;;;;;;;;;;103449;1291;545973;-69
2024/03/27 22:36:57;;;;;;;12.90;6.60;;;;;;;;;;103554;1288;544918;-68
2024/03/27 22:40:35;;;;;;;13.20;6.80;;;;;;;;;;103967;1286;544809;-69
2024/03/27 22:44:12;;;;;;;14.20;7.00;;;;;;;;;;103646;1290;544905;-69
2024/03/27 22:47:50;;;;;;;14.60;6.40;;;;;;;;;;103633;1288;544745;-71
2024/03/27 22:51:27;;;;;;;14.40;6.90;;;;;;;;;;103491;1295;544801;-70
2024/03/27 22:55:04;;;;;;;13.60;6.40;;;;;;;;;;103665;1292;544945;-70
2024/03/27 22:58:44;;;;;;;15.20;7.20;;;;;;;;;;103864;1291;546033;-70
2024/03/27 23:02:27;;;;;;;11.70;6.40;;;;;;;;;;103675;1290;544988;-68
2024/03/27 23:05:56;;;;;;;13.90;6.80;;;;;;;;;;103834;1286;545704;-71